This is the latest recevied weather packets stored in our database for station/object K6CED. If no packets are shown the sender has not sent any weather packets the latest 10 day(s).
| Time | Temp. | Humidity | Pressure | Rain* | Wind** | Luminosity | Snow |
|---|---|---|---|---|---|---|---|
| 1788577203 | 21.67° C | 49% | 1015.1 hPa | 0 mm | - | 0 W/m² | - |
| 1788576899 | 22.22° C | 48% | 1015.1 hPa | 0 mm | - | 0 W/m² | - |
| 1788576595 | 22.22° C | 46% | 1015.3 hPa | 0 mm | - | 0 W/m² | - |
| 1788576295 | 22.22° C | 43% | 1015.2 hPa | 0 mm | - | 0 W/m² | - |
| 1788575991 | 22.78° C | 40% | 1014.9 hPa | 0 mm | - | 0 W/m² | - |
| 1788575685 | 22.78° C | 38% | 1014.9 hPa | 0 mm | - | 0 W/m² | - |
| 1788575384 | 23.33° C | 34% | 1014.9 hPa | 0 mm | - | 0 W/m² | - |
| 1788575080 | 23.33° C | 32% | 1014.7 hPa | 0 mm | - | 0 W/m² | - |
| 1788574775 | 23.89° C | 33% | 1014.8 hPa | 0 mm | - | 1 W/m² | - |
| 1788574475 | 23.89° C | 34% | 1014.9 hPa | 0 mm | - | 2 W/m² | - |
| 1788574170 | 23.89° C | 35% | 1014.8 hPa | 0 mm | - | 5 W/m² | - |
| 1788573869 | 23.89° C | 35% | 1014.8 hPa | 0 mm | - | 8 W/m² | - |
| 1788573564 | 24.44° C | 34% | 1014.8 hPa | 0 mm | - | 11 W/m² | - |
| 1788573263 | 24.44° C | 35% | 1014.7 hPa | 0 mm | - | 15 W/m² | - |
| 1788572961 | 24.44° C | 34% | 1014.8 hPa | 0 mm | - | 18 W/m² | - |
| 1788572658 | 25° C | 32% | 1015 hPa | 0 mm | - | 23 W/m² | - |
| 1788572353 | 25.56° C | 30% | 1014.7 hPa | 0 mm | - | 30 W/m² | - |
| 1788572049 | 26.11° C | 29% | 1015 hPa | 0 mm | - | 38 W/m² | - |
| 1788571744 | 26.11° C | 29% | 1014.9 hPa | 0 mm | - | 45 W/m² | - |
| 1788571439 | 26.11° C | 30% | 1015.1 hPa | 0 mm | - | 52 W/m² | - |
| 1788571136 | 26.11° C | 29% | 1015.1 hPa | 0 mm | - | 55 W/m² | - |
| 1788570831 | 26.67° C | 29% | 1015 hPa | 0 mm | - | 58 W/m² | - |
| 1788570527 | 26.67° C | 29% | 1015.1 hPa | 0 mm | - | 67 W/m² | - |
| 1788570222 | 26.67° C | 30% | 1014.9 hPa | 0 mm | - | 75 W/m² | - |
| 1788569918 | 26.67° C | 32% | 1015.1 hPa | 0 mm | - | 83 W/m² | - |
* Rain latest hour (hover to see other rain measurements)
** Current wind speed in m/s (hover to see current wind gust speed)